sensor_id;sensor_type;location;lat;lon;timestamp;temperature;humidity
21568;DHT22;10944;42.590;12.630;2023-04-01T00:02:18;13.70;99.90
21568;DHT22;10944;42.590;12.630;2023-04-01T00:04:44;13.80;99.90
21568;DHT22;10944;42.590;12.630;2023-04-01T00:07:10;13.70;99.90
21568;DHT22;10944;42.590;12.630;2023-04-01T00:09:36;13.70;99.90
21568;DHT22;10944;42.590;12.630;2023-04-01T00:12:02;13.60;99.90
21568;DHT22;10944;42.590;12.630;2023-04-01T00:14:28;13.60;99.90
21568;DHT22;10944;42.590;12.630;2023-04-01T00:16:55;13.60;99.90
21568;DHT22;10944;42.590;12.630;2023-04-01T00:19:20;13.60;99.90
21568;DHT22;10944;42.590;12.630;2023-04-01T00:21:46;13.60;99.90
21568;DHT22;10944;42.590;12.630;2023-04-01T00:24:13;13.60;99.90
21568;DHT22;10944;42.590;12.630;2023-04-01T00:26:39;13.60;99.90
21568;DHT22;10944;42.590;12.630;2023-04-01T00:29:07;13.60;99.90
21568;DHT22;10944;42.590;12.630;2023-04-01T00:31:33;13.60;99.90
21568;DHT22;10944;42.590;12.630;2023-04-01T00:33:59;13.60;99.90
21568;DHT22;10944;42.590;12.630;2023-04-01T00:36:25;13.70;99.90
21568;DHT22;10944;42.590;12.630;2023-04-01T00:38:51;13.60;99.90
21568;DHT22;10944;42.590;12.630;2023-04-01T00:41:18;13.60;99.90
21568;DHT22;10944;42.590;12.630;2023-04-01T00:43:47;13.60;99.90
21568;DHT22;10944;42.590;12.630;2023-04-01T00:46:14;13.70;99.90
21568;DHT22;10944;42.590;12.630;2023-04-01T00:48:43;13.60;99.90
21568;DHT22;10944;42.590;12.630;2023-04-01T00:51:15;13.60;99.90
21568;DHT22;10944;42.590;12.630;2023-04-01T00:53:45;13.60;99.90
21568;DHT22;10944;42.590;12.630;2023-04-01T00:56:36;13.70;99.90
21568;DHT22;10944;42.590;12.630;2023-04-01T00:59:11;13.70;99.90
21568;DHT22;10944;42.590;12.630;2023-04-01T01:01:39;13.70;99.90
21568;DHT22;10944;42.590;12.630;2023-04-01T01:04:04;13.80;99.90
21568;DHT22;10944;42.590;12.630;2023-04-01T01:15:29;13.90;99.90
21568;DHT22;10944;42.590;12.630;2023-04-01T01:23:55;13.90;99.90
21568;DHT22;10944;42.590;12.630;2023-04-01T01:29:16;13.90;99.90
21568;DHT22;10944;42.590;12.630;2023-04-01T01:32:07;13.80;99.90
21568;DHT22;10944;42.590;12.630;2023-04-01T01:37:27;13.80;99.90
21568;DHT22;10944;42.590;12.630;2023-04-01T01:40:01;13.80;99.90
21568;DHT22;10944;42.590;12.630;2023-04-01T01:42:28;13.70;99.90
21568;DHT22;10944;42.590;12.630;2023-04-01T01:44:57;13.70;99.90
21568;DHT22;10944;42.590;12.630;2023-04-01T01:47:25;13.70;99.90
21568;DHT22;10944;42.590;12.630;2023-04-01T01:49:53;13.70;99.90
21568;DHT22;10944;42.590;12.630;2023-04-01T01:52:22;13.70;99.90
21568;DHT22;10944;42.590;12.630;2023-04-01T01:54:53;13.60;99.90
21568;DHT22;10944;42.590;12.630;2023-04-01T01:57:24;13.60;99.90
21568;DHT22;10944;42.590;12.630;2023-04-01T01:59:54;13.60;99.90
21568;DHT22;10944;42.590;12.630;2023-04-01T02:02:22;13.60;99.90
21568;DHT22;10944;42.590;12.630;2023-04-01T02:04:49;13.50;99.90
21568;DHT22;10944;42.590;12.630;2023-04-01T02:07:23;13.50;99.90
21568;DHT22;10944;42.590;12.630;2023-04-01T02:09:51;13.50;99.90
21568;DHT22;10944;42.590;12.630;2023-04-01T02:12:19;13.50;99.90
21568;DHT22;10944;42.590;12.630;2023-04-01T02:17:24;13.40;99.90
21568;DHT22;10944;42.590;12.630;2023-04-01T02:19:56;13.40;99.90
21568;DHT22;10944;42.590;12.630;2023-04-01T02:22:28;13.40;99.90
21568;DHT22;10944;42.590;12.630;2023-04-01T02:24:58;13.40;99.90
21568;DHT22;10944;42.590;12.630;2023-04-01T02:27:25;13.30;99.90
21568;DHT22;10944;42.590;12.630;2023-04-01T02:29:51;13.30;99.90
21568;DHT22;10944;42.590;12.630;2023-04-01T02:32:19;13.30;99.90
21568;DHT22;10944;42.590;12.630;2023-04-01T02:34:46;13.40;99.90
21568;DHT22;10944;42.590;12.630;2023-04-01T02:37:13;13.40;99.90
21568;DHT22;10944;42.590;12.630;2023-04-01T02:39:39;13.40;99.90
21568;DHT22;10944;42.590;12.630;2023-04-01T02:42:05;13.30;99.90
21568;DHT22;10944;42.590;12.630;2023-04-01T02:44:31;13.30;99.90
21568;DHT22;10944;42.590;12.630;2023-04-01T02:46:57;13.20;99.90
21568;DHT22;10944;42.590;12.630;2023-04-01T02:49:23;13.10;99.90
21568;DHT22;10944;42.590;12.630;2023-04-01T02:51:48;13.20;99.90
21568;DHT22;10944;42.590;12.630;2023-04-01T02:54:14;13.20;99.90
21568;DHT22;10944;42.590;12.630;2023-04-01T02:56:40;13.30;99.90
21568;DHT22;10944;42.590;12.630;2023-04-01T02:59:06;13.30;99.90
21568;DHT22;10944;42.590;12.630;2023-04-01T03:01:32;13.30;99.90
21568;DHT22;10944;42.590;12.630;2023-04-01T03:03:57;13.30;99.90
21568;DHT22;10944;42.590;12.630;2023-04-01T03:06:23;13.30;99.90
21568;DHT22;10944;42.590;12.630;2023-04-01T03:08:49;13.20;99.90
21568;DHT22;10944;42.590;12.630;2023-04-01T03:11:14;13.20;99.90
21568;DHT22;10944;42.590;12.630;2023-04-01T03:13:41;13.20;99.90
21568;DHT22;10944;42.590;12.630;2023-04-01T03:16:06;13.20;99.90
21568;DHT22;10944;42.590;12.630;2023-04-01T03:18:32;13.20;99.90
21568;DHT22;10944;42.590;12.630;2023-04-01T03:21:12;13.20;99.90
21568;DHT22;10944;42.590;12.630;2023-04-01T03:23:38;13.20;99.90
21568;DHT22;10944;42.590;12.630;2023-04-01T03:26:04;13.10;99.90
21568;DHT22;10944;42.590;12.630;2023-04-01T03:28:30;13.10;99.90
21568;DHT22;10944;42.590;12.630;2023-04-01T03:30:55;13.20;99.90
21568;DHT22;10944;42.590;12.630;2023-04-01T03:33:21;13.20;99.90
21568;DHT22;10944;42.590;12.630;2023-04-01T03:35:47;13.20;99.90
21568;DHT22;10944;42.590;12.630;2023-04-01T03:38:12;13.10;99.90
21568;DHT22;10944;42.590;12.630;2023-04-01T03:40:42;13.00;99.90
21568;DHT22;10944;42.590;12.630;2023-04-01T03:43:08;12.90;99.90
21568;DHT22;10944;42.590;12.630;2023-04-01T03:45:35;12.70;99.90
21568;DHT22;10944;42.590;12.630;2023-04-01T03:48:01;12.60;99.90
21568;DHT22;10944;42.590;12.630;2023-04-01T03:50:27;12.50;99.90
21568;DHT22;10944;42.590;12.630;2023-04-01T03:52:52;12.50;99.90
21568;DHT22;10944;42.590;12.630;2023-04-01T03:55:18;12.60;99.90
21568;DHT22;10944;42.590;12.630;2023-04-01T03:57:44;12.60;99.90
21568;DHT22;10944;42.590;12.630;2023-04-01T04:00:10;12.60;99.90
21568;DHT22;10944;42.590;12.630;2023-04-01T04:02:36;12.50;99.90
21568;DHT22;10944;42.590;12.630;2023-04-01T04:05:02;12.50;99.90
21568;DHT22;10944;42.590;12.630;2023-04-01T04:07:27;12.50;99.90
21568;DHT22;10944;42.590;12.630;2023-04-01T04:09:53;12.40;99.90
21568;DHT22;10944;42.590;12.630;2023-04-01T04:12:19;12.40;99.90
21568;DHT22;10944;42.590;12.630;2023-04-01T04:14:44;12.40;99.90
21568;DHT22;10944;42.590;12.630;2023-04-01T04:17:11;12.30;99.90
21568;DHT22;10944;42.590;12.630;2023-04-01T04:19:41;12.40;99.90
21568;DHT22;10944;42.590;12.630;2023-04-01T04:22:08;12.50;99.90
21568;DHT22;10944;42.590;12.630;2023-04-01T04:24:37;12.60;99.90
21568;DHT22;10944;42.590;12.630;2023-04-01T04:27:03;12.60;99.90
21568;DHT22;10944;42.590;12.630;2023-04-01T04:29:29;12.60;99.90
21568;DHT22;10944;42.590;12.630;2023-04-01T04:31:55;12.70;99.90
21568;DHT22;10944;42.590;12.630;2023-04-01T04:34:21;12.60;99.90
21568;DHT22;10944;42.590;12.630;2023-04-01T04:36:48;12.60;99.90
21568;DHT22;10944;42.590;12.630;2023-04-01T04:39:14;12.80;99.90
21568;DHT22;10944;42.590;12.630;2023-04-01T04:41:40;12.70;99.90
21568;DHT22;10944;42.590;12.630;2023-04-01T04:44:06;12.80;99.90
21568;DHT22;10944;42.590;12.630;2023-04-01T04:46:32;12.70;99.90
21568;DHT22;10944;42.590;12.630;2023-04-01T04:48:58;12.80;99.90
21568;DHT22;10944;42.590;12.630;2023-04-01T04:51:24;12.70;99.90
21568;DHT22;10944;42.590;12.630;2023-04-01T04:53:50;12.70;99.90
21568;DHT22;10944;42.590;12.630;2023-04-01T04:56:20;12.60;99.90
21568;DHT22;10944;42.590;12.630;2023-04-01T04:58:47;12.60;99.90
21568;DHT22;10944;42.590;12.630;2023-04-01T05:01:14;12.50;99.90
21568;DHT22;10944;42.590;12.630;2023-04-01T05:03:41;12.50;99.90
21568;DHT22;10944;42.590;12.630;2023-04-01T05:06:08;12.50;99.90
21568;DHT22;10944;42.590;12.630;2023-04-01T05:08:35;12.60;99.90
21568;DHT22;10944;42.590;12.630;2023-04-01T05:11:02;12.70;99.90
21568;DHT22;10944;42.590;12.630;2023-04-01T05:13:28;12.70;99.90
21568;DHT22;10944;42.590;12.630;2023-04-01T05:15:54;12.70;99.90
21568;DHT22;10944;42.590;12.630;2023-04-01T05:18:21;12.70;99.90
21568;DHT22;10944;42.590;12.630;2023-04-01T05:20:52;12.70;99.90
21568;DHT22;10944;42.590;12.630;2023-04-01T05:23:19;12.70;99.90
21568;DHT22;10944;42.590;12.630;2023-04-01T05:25:47;12.80;99.90
21568;DHT22;10944;42.590;12.630;2023-04-01T05:28:12;12.70;99.90
21568;DHT22;10944;42.590;12.630;2023-04-01T05:30:42;12.80;99.90
21568;DHT22;10944;42.590;12.630;2023-04-01T05:33:09;12.70;99.90
21568;DHT22;10944;42.590;12.630;2023-04-01T05:35:36;12.60;99.90
21568;DHT22;10944;42.590;12.630;2023-04-01T05:38:02;12.60;99.90
21568;DHT22;10944;42.590;12.630;2023-04-01T05:40:28;12.50;99.90
21568;DHT22;10944;42.590;12.630;2023-04-01T05:42:54;12.40;99.90
21568;DHT22;10944;42.590;12.630;2023-04-01T05:45:20;12.30;99.90
21568;DHT22;10944;42.590;12.630;2023-04-01T05:47:46;12.30;99.90
21568;DHT22;10944;42.590;12.630;2023-04-01T05:50:12;12.40;99.90
21568;DHT22;10944;42.590;12.630;2023-04-01T05:52:38;12.50;99.90
21568;DHT22;10944;42.590;12.630;2023-04-01T05:55:05;12.60;99.90
21568;DHT22;10944;42.590;12.630;2023-04-01T05:57:31;12.80;99.90
21568;DHT22;10944;42.590;12.630;2023-04-01T05:59:56;13.00;99.90
21568;DHT22;10944;42.590;12.630;2023-04-01T06:02:22;13.20;99.90
21568;DHT22;10944;42.590;12.630;2023-04-01T06:04:49;13.40;99.90
21568;DHT22;10944;42.590;12.630;2023-04-01T06:07:16;13.50;99.90
21568;DHT22;10944;42.590;12.630;2023-04-01T06:09:43;13.70;99.90
21568;DHT22;10944;42.590;12.630;2023-04-01T06:15:29;14.00;99.90
21568;DHT22;10944;42.590;12.630;2023-04-01T06:20:53;14.10;99.90
21568;DHT22;10944;42.590;12.630;2023-04-01T06:26:15;14.10;99.90
21568;DHT22;10944;42.590;12.630;2023-04-01T06:31:37;13.70;99.90
21568;DHT22;10944;42.590;12.630;2023-04-01T06:34:25;13.60;99.90
21568;DHT22;10944;42.590;12.630;2023-04-01T06:42:53;13.50;99.90
21568;DHT22;10944;42.590;12.630;2023-04-01T06:56:12;14.20;99.90
21568;DHT22;10944;42.590;12.630;2023-04-01T07:02:04;14.20;99.90
21568;DHT22;10944;42.590;12.630;2023-04-01T07:04:32;14.20;99.90
21568;DHT22;10944;42.590;12.630;2023-04-01T07:07:11;14.40;99.90
21568;DHT22;10944;42.590;12.630;2023-04-01T07:09:41;14.70;99.90
21568;DHT22;10944;42.590;12.630;2023-04-01T07:12:27;14.90;99.60
21568;DHT22;10944;42.590;12.630;2023-04-01T07:14:56;15.10;99.50
21568;DHT22;10944;42.590;12.630;2023-04-01T07:17:28;15.30;99.50
21568;DHT22;10944;42.590;12.630;2023-04-01T07:22:43;15.40;99.40
21568;DHT22;10944;42.590;12.630;2023-04-01T07:25:27;15.40;99.00
21568;DHT22;10944;42.590;12.630;2023-04-01T07:28:03;15.70;99.20
21568;DHT22;10944;42.590;12.630;2023-04-01T07:31:11;15.90;99.00
21568;DHT22;10944;42.590;12.630;2023-04-01T07:36:33;15.80;98.00
21568;DHT22;10944;42.590;12.630;2023-04-01T07:39:26;15.80;98.20
21568;DHT22;10944;42.590;12.630;2023-04-01T07:42:09;15.90;97.70
21568;DHT22;10944;42.590;12.630;2023-04-01T07:58:22;15.30;98.00
21568;DHT22;10944;42.590;12.630;2023-04-01T08:01:14;15.50;97.90
21568;DHT22;10944;42.590;12.630;2023-04-01T08:07:54;15.90;97.10
21568;DHT22;10944;42.590;12.630;2023-04-01T08:10:02;15.90;97.20
21568;DHT22;10944;42.590;12.630;2023-04-01T08:15:26;16.20;97.40
21568;DHT22;10944;42.590;12.630;2023-04-01T08:18:50;16.30;96.40
21568;DHT22;10944;42.590;12.630;2023-04-01T08:21:54;16.20;97.20
21568;DHT22;10944;42.590;12.630;2023-04-01T08:24:20;16.10;97.60
21568;DHT22;10944;42.590;12.630;2023-04-01T08:26:51;15.90;97.90
21568;DHT22;10944;42.590;12.630;2023-04-01T08:29:25;16.00;97.30
21568;DHT22;10944;42.590;12.630;2023-04-01T08:31:59;16.10;96.90
21568;DHT22;10944;42.590;12.630;2023-04-01T08:34:35;16.10;97.00
21568;DHT22;10944;42.590;12.630;2023-04-01T08:37:08;16.00;96.80
21568;DHT22;10944;42.590;12.630;2023-04-01T08:39:46;16.00;97.20
21568;DHT22;10944;42.590;12.630;2023-04-01T08:45:09;16.30;96.40
21568;DHT22;10944;42.590;12.630;2023-04-01T09:22:12;17.00;94.20
21568;DHT22;10944;42.590;12.630;2023-04-01T09:27:25;16.90;94.00
21568;DHT22;10944;42.590;12.630;2023-04-01T09:38:54;17.80;93.30
21568;DHT22;10944;42.590;12.630;2023-04-01T09:41:33;17.60;93.10
21568;DHT22;10944;42.590;12.630;2023-04-01T09:44:06;17.60;93.70
21568;DHT22;10944;42.590;12.630;2023-04-01T09:49:28;17.50;93.30
21568;DHT22;10944;42.590;12.630;2023-04-01T10:32:26;17.50;90.60
21568;DHT22;10944;42.590;12.630;2023-04-01T10:48:44;18.50;88.40
21568;DHT22;10944;42.590;12.630;2023-04-01T10:51:27;18.50;87.50
21568;DHT22;10944;42.590;12.630;2023-04-01T11:02:58;18.20;87.10
21568;DHT22;10944;42.590;12.630;2023-04-01T11:28:27;18.70;86.10
21568;DHT22;10944;42.590;12.630;2023-04-01T11:39:22;18.60;85.70
21568;DHT22;10944;42.590;12.630;2023-04-01T11:42:14;18.40;83.50
21568;DHT22;10944;42.590;12.630;2023-04-01T11:45:05;18.60;86.00
21568;DHT22;10944;42.590;12.630;2023-04-01T11:56:47;19.30;85.10
21568;DHT22;10944;42.590;12.630;2023-04-01T11:59:50;19.60;86.90
21568;DHT22;10944;42.590;12.630;2023-04-01T12:07:41;19.20;82.60
21568;DHT22;10944;42.590;12.630;2023-04-01T12:10:18;19.00;82.50
21568;DHT22;10944;42.590;12.630;2023-04-01T12:13:45;18.90;82.80
21568;DHT22;10944;42.590;12.630;2023-04-01T12:21:33;18.90;79.90
21568;DHT22;10944;42.590;12.630;2023-04-01T12:27:13;18.80;78.70
21568;DHT22;10944;42.590;12.630;2023-04-01T12:30:18;18.80;81.40
21568;DHT22;10944;42.590;12.630;2023-04-01T12:38:39;19.50;82.70
21568;DHT22;10944;42.590;12.630;2023-04-01T12:44:29;19.80;82.70
21568;DHT22;10944;42.590;12.630;2023-04-01T12:55:43;20.00;83.20
21568;DHT22;10944;42.590;12.630;2023-04-01T13:20:16;21.00;79.10
21568;DHT22;10944;42.590;12.630;2023-04-01T13:23:09;20.40;77.60
21568;DHT22;10944;42.590;12.630;2023-04-01T13:28:32;19.60;79.60
21568;DHT22;10944;42.590;12.630;2023-04-01T13:31:36;19.50;79.40
21568;DHT22;10944;42.590;12.630;2023-04-01T13:42:43;19.10;79.00
21568;DHT22;10944;42.590;12.630;2023-04-01T13:45:24;19.00;79.00
21568;DHT22;10944;42.590;12.630;2023-04-01T13:48:18;18.80;78.10
21568;DHT22;10944;42.590;12.630;2023-04-01T13:54:04;18.50;82.30
21568;DHT22;10944;42.590;12.630;2023-04-01T13:57:03;18.30;82.60
21568;DHT22;10944;42.590;12.630;2023-04-01T13:59:40;18.20;81.30
21568;DHT22;10944;42.590;12.630;2023-04-01T14:05:24;18.00;81.10
21568;DHT22;10944;42.590;12.630;2023-04-01T14:19:38;17.40;82.50
21568;DHT22;10944;42.590;12.630;2023-04-01T14:22:30;17.40;84.20
21568;DHT22;10944;42.590;12.630;2023-04-01T14:33:59;16.80;86.10
21568;DHT22;10944;42.590;12.630;2023-04-01T14:52:42;17.10;85.00
21568;DHT22;10944;42.590;12.630;2023-04-01T15:14:35;13.90;97.90
21568;DHT22;10944;42.590;12.630;2023-04-01T15:23:08;13.30;97.70
21568;DHT22;10944;42.590;12.630;2023-04-01T15:31:28;13.30;99.90
21568;DHT22;10944;42.590;12.630;2023-04-01T15:36:58;13.40;99.90
21568;DHT22;10944;42.590;12.630;2023-04-01T15:42:41;13.50;99.90
21568;DHT22;10944;42.590;12.630;2023-04-01T15:45:49;13.50;98.30
21568;DHT22;10944;42.590;12.630;2023-04-01T15:50:53;13.70;99.90
21568;DHT22;10944;42.590;12.630;2023-04-01T15:53:53;13.70;99.90
21568;DHT22;10944;42.590;12.630;2023-04-01T15:56:28;13.80;99.90
21568;DHT22;10944;42.590;12.630;2023-04-01T16:06:58;14.40;99.90
21568;DHT22;10944;42.590;12.630;2023-04-01T16:13:14;14.80;97.90
21568;DHT22;10944;42.590;12.630;2023-04-01T16:18:28;15.10;96.80
21568;DHT22;10944;42.590;12.630;2023-04-01T16:21:21;15.10;98.50
21568;DHT22;10944;42.590;12.630;2023-04-01T16:23:55;14.80;99.90
21568;DHT22;10944;42.590;12.630;2023-04-01T16:34:20;14.40;99.90
21568;DHT22;10944;42.590;12.630;2023-04-01T16:36:53;14.30;99.90
21568;DHT22;10944;42.590;12.630;2023-04-01T16:39:35;14.20;99.10
21568;DHT22;10944;42.590;12.630;2023-04-01T16:47:36;13.80;98.50
21568;DHT22;10944;42.590;12.630;2023-04-01T16:50:27;13.70;98.40
21568;DHT22;10944;42.590;12.630;2023-04-01T16:53:09;13.40;98.50
21568;DHT22;10944;42.590;12.630;2023-04-01T16:55:49;13.40;98.70
21568;DHT22;10944;42.590;12.630;2023-04-01T17:01:20;13.20;98.40
21568;DHT22;10944;42.590;12.630;2023-04-01T17:04:01;13.30;97.60
21568;DHT22;10944;42.590;12.630;2023-04-01T17:06:55;13.20;97.90
21568;DHT22;10944;42.590;12.630;2023-04-01T17:15:34;13.10;97.80
21568;DHT22;10944;42.590;12.630;2023-04-01T17:20:46;13.10;97.80
21568;DHT22;10944;42.590;12.630;2023-04-01T17:23:32;13.10;97.40
21568;DHT22;10944;42.590;12.630;2023-04-01T17:31:51;13.10;97.10
21568;DHT22;10944;42.590;12.630;2023-04-01T17:34:41;13.10;97.20
21568;DHT22;10944;42.590;12.630;2023-04-01T17:37:23;13.00;97.70
21568;DHT22;10944;42.590;12.630;2023-04-01T17:48:44;12.90;96.60
21568;DHT22;10944;42.590;12.630;2023-04-01T17:56:55;12.90;97.40
21568;DHT22;10944;42.590;12.630;2023-04-01T17:59:45;12.80;96.90
21568;DHT22;10944;42.590;12.630;2023-04-01T18:05:30;12.90;96.70
21568;DHT22;10944;42.590;12.630;2023-04-01T18:08:42;12.90;96.70
21568;DHT22;10944;42.590;12.630;2023-04-01T18:14:21;12.90;97.50
21568;DHT22;10944;42.590;12.630;2023-04-01T18:22:45;12.80;96.70
21568;DHT22;10944;42.590;12.630;2023-04-01T18:25:20;12.80;97.00
21568;DHT22;10944;42.590;12.630;2023-04-01T18:30:36;12.70;96.80
21568;DHT22;10944;42.590;12.630;2023-04-01T18:40:50;12.80;96.20
21568;DHT22;10944;42.590;12.630;2023-04-01T18:43:39;12.80;96.40
21568;DHT22;10944;42.590;12.630;2023-04-01T18:49:13;12.80;96.60
21568;DHT22;10944;42.590;12.630;2023-04-01T18:51:50;12.80;96.60
21568;DHT22;10944;42.590;12.630;2023-04-01T18:57:13;12.70;96.90
21568;DHT22;10944;42.590;12.630;2023-04-01T18:59:43;12.70;96.80
21568;DHT22;10944;42.590;12.630;2023-04-01T19:21:26;12.50;96.80
21568;DHT22;10944;42.590;12.630;2023-04-01T19:32:30;12.30;97.20
21568;DHT22;10944;42.590;12.630;2023-04-01T19:35:12;12.30;97.30
21568;DHT22;10944;42.590;12.630;2023-04-01T19:37:44;12.20;97.40
21568;DHT22;10944;42.590;12.630;2023-04-01T19:42:58;12.00;98.10
21568;DHT22;10944;42.590;12.630;2023-04-01T19:48:54;11.90;98.80
21568;DHT22;10944;42.590;12.630;2023-04-01T19:51:37;11.80;99.00
21568;DHT22;10944;42.590;12.630;2023-04-01T20:02:56;11.70;98.70
21568;DHT22;10944;42.590;12.630;2023-04-01T20:11:18;11.70;98.40
21568;DHT22;10944;42.590;12.630;2023-04-01T20:14:01;11.60;98.80
21568;DHT22;10944;42.590;12.630;2023-04-01T20:16:55;11.50;98.70
21568;DHT22;10944;42.590;12.630;2023-04-01T20:20:29;11.60;98.00
21568;DHT22;10944;42.590;12.630;2023-04-01T20:25:08;11.50;98.80
21568;DHT22;10944;42.590;12.630;2023-04-01T20:27:40;11.30;99.50
21568;DHT22;10944;42.590;12.630;2023-04-01T20:30:43;11.20;99.70
21568;DHT22;10944;42.590;12.630;2023-04-01T20:44:46;10.80;99.90
21568;DHT22;10944;42.590;12.630;2023-04-01T20:55:50;10.90;99.20
21568;DHT22;10944;42.590;12.630;2023-04-01T21:28:24;10.90;99.30
21568;DHT22;10944;42.590;12.630;2023-04-01T21:31:19;10.90;99.40
21568;DHT22;10944;42.590;12.630;2023-04-01T21:42:00;10.80;99.80
21568;DHT22;10944;42.590;12.630;2023-04-01T22:04:00;10.40;99.90
21568;DHT22;10944;42.590;12.630;2023-04-01T22:06:48;10.30;99.90
21568;DHT22;10944;42.590;12.630;2023-04-01T22:09:34;10.10;99.90
21568;DHT22;10944;42.590;12.630;2023-04-01T22:15:09;10.10;99.90
21568;DHT22;10944;42.590;12.630;2023-04-01T22:28:27;9.40;99.90
21568;DHT22;10944;42.590;12.630;2023-04-01T22:30:59;9.40;99.90
21568;DHT22;10944;42.590;12.630;2023-04-01T22:33:49;9.40;99.90
21568;DHT22;10944;42.590;12.630;2023-04-01T22:38:52;9.80;99.90
21568;DHT22;10944;42.590;12.630;2023-04-01T22:41:33;9.80;99.90
21568;DHT22;10944;42.590;12.630;2023-04-01T22:44:02;9.80;99.90
21568;DHT22;10944;42.590;12.630;2023-04-01T22:46:36;9.90;99.90
21568;DHT22;10944;42.590;12.630;2023-04-01T22:49:20;10.00;99.90
21568;DHT22;10944;42.590;12.630;2023-04-01T22:51:52;10.00;99.90
21568;DHT22;10944;42.590;12.630;2023-04-01T22:57:04;10.10;99.90
21568;DHT22;10944;42.590;12.630;2023-04-01T22:59:57;10.20;99.50
21568;DHT22;10944;42.590;12.630;2023-04-01T23:02:30;10.30;99.50
21568;DHT22;10944;42.590;12.630;2023-04-01T23:04:59;10.30;99.50
21568;DHT22;10944;42.590;12.630;2023-04-01T23:10:39;10.20;99.90
21568;DHT22;10944;42.590;12.630;2023-04-01T23:13:18;9.90;99.90
21568;DHT22;10944;42.590;12.630;2023-04-01T23:15:46;9.80;99.90
21568;DHT22;10944;42.590;12.630;2023-04-01T23:18:30;9.80;99.90
21568;DHT22;10944;42.590;12.630;2023-04-01T23:26:32;9.40;99.90
21568;DHT22;10944;42.590;12.630;2023-04-01T23:29:00;9.30;99.90
21568;DHT22;10944;42.590;12.630;2023-04-01T23:31:38;9.10;99.90
21568;DHT22;10944;42.590;12.630;2023-04-01T23:37:10;9.20;99.90
21568;DHT22;10944;42.590;12.630;2023-04-01T23:39:40;9.20;99.90
21568;DHT22;10944;42.590;12.630;2023-04-01T23:44:40;9.10;99.90
21568;DHT22;10944;42.590;12.630;2023-04-01T23:47:08;8.90;99.90
21568;DHT22;10944;42.590;12.630;2023-04-01T23:49:40;8.80;99.90
21568;DHT22;10944;42.590;12.630;2023-04-01T23:52:17;8.70;99.90
21568;DHT22;10944;42.590;12.630;2023-04-01T23:55:01;8.80;99.90
21568;DHT22;10944;42.590;12.630;2023-04-01T23:57:34;8.90;99.90
